sensor_id;sensor_type;location;lat;lon;timestamp;temperature;humidity
580;DHT22;276;48.392;9.950;2022-07-23T00:00:00;25.20;93.90
580;DHT22;276;48.392;9.950;2022-07-23T00:02:26;25.10;94.30
580;DHT22;276;48.392;9.950;2022-07-23T00:04:51;25.10;95.20
580;DHT22;276;48.392;9.950;2022-07-23T00:07:17;25.10;94.30
580;DHT22;276;48.392;9.950;2022-07-23T00:09:47;25.10;94.60
580;DHT22;276;48.392;9.950;2022-07-23T00:12:13;25.00;95.30
580;DHT22;276;48.392;9.950;2022-07-23T00:14:39;25.00;96.20
580;DHT22;276;48.392;9.950;2022-07-23T00:17:07;24.90;96.10
580;DHT22;276;48.392;9.950;2022-07-23T00:19:33;24.90;98.00
580;DHT22;276;48.392;9.950;2022-07-23T00:22:01;24.80;99.50
580;DHT22;276;48.392;9.950;2022-07-23T00:24:29;24.70;99.90
580;DHT22;276;48.392;9.950;2022-07-23T00:26:59;24.70;99.90
580;DHT22;276;48.392;9.950;2022-07-23T00:29:27;24.70;99.90
580;DHT22;276;48.392;9.950;2022-07-23T00:31:55;24.60;99.90
580;DHT22;276;48.392;9.950;2022-07-23T00:34:21;24.50;99.90
580;DHT22;276;48.392;9.950;2022-07-23T00:36:47;24.40;99.90
580;DHT22;276;48.392;9.950;2022-07-23T00:39:12;24.40;99.90
580;DHT22;276;48.392;9.950;2022-07-23T00:41:38;24.40;99.90
580;DHT22;276;48.392;9.950;2022-07-23T00:44:24;24.30;99.90
580;DHT22;276;48.392;9.950;2022-07-23T00:46:54;24.20;99.90
580;DHT22;276;48.392;9.950;2022-07-23T00:49:28;24.20;99.90
580;DHT22;276;48.392;9.950;2022-07-23T00:51:54;24.20;99.90
580;DHT22;276;48.392;9.950;2022-07-23T00:54:22;24.20;99.90
580;DHT22;276;48.392;9.950;2022-07-23T00:56:48;24.20;99.90
580;DHT22;276;48.392;9.950;2022-07-23T00:59:14;24.10;99.90
580;DHT22;276;48.392;9.950;2022-07-23T01:01:40;24.10;99.90
580;DHT22;276;48.392;9.950;2022-07-23T01:04:06;24.00;99.90
580;DHT22;276;48.392;9.950;2022-07-23T01:06:36;23.90;99.90
580;DHT22;276;48.392;9.950;2022-07-23T01:09:04;23.90;99.90
580;DHT22;276;48.392;9.950;2022-07-23T01:11:33;23.90;99.90
580;DHT22;276;48.392;9.950;2022-07-23T01:14:15;23.90;99.90
580;DHT22;276;48.392;9.950;2022-07-23T01:16:45;23.90;99.90
580;DHT22;276;48.392;9.950;2022-07-23T01:19:12;23.90;99.90
580;DHT22;276;48.392;9.950;2022-07-23T01:21:40;23.90;99.90
580;DHT22;276;48.392;9.950;2022-07-23T01:24:10;23.80;99.90
580;DHT22;276;48.392;9.950;2022-07-23T01:26:39;23.80;99.90
580;DHT22;276;48.392;9.950;2022-07-23T01:29:05;23.90;99.90
580;DHT22;276;48.392;9.950;2022-07-23T01:31:31;23.80;99.90
580;DHT22;276;48.392;9.950;2022-07-23T01:34:00;23.80;99.90
580;DHT22;276;48.392;9.950;2022-07-23T01:36:28;23.80;99.90
580;DHT22;276;48.392;9.950;2022-07-23T01:38:56;23.80;99.90
580;DHT22;276;48.392;9.950;2022-07-23T01:41:22;23.80;99.90
580;DHT22;276;48.392;9.950;2022-07-23T01:43:50;23.90;99.90
580;DHT22;276;48.392;9.950;2022-07-23T01:46:16;23.90;99.90
580;DHT22;276;48.392;9.950;2022-07-23T01:48:41;23.90;99.90
580;DHT22;276;48.392;9.950;2022-07-23T01:51:07;23.80;99.90
580;DHT22;276;48.392;9.950;2022-07-23T01:53:35;23.80;99.90
580;DHT22;276;48.392;9.950;2022-07-23T01:56:01;23.80;99.90
580;DHT22;276;48.392;9.950;2022-07-23T01:58:27;23.90;99.90
580;DHT22;276;48.392;9.950;2022-07-23T02:00:56;23.80;99.90
580;DHT22;276;48.392;9.950;2022-07-23T02:03:25;23.80;99.90
580;DHT22;276;48.392;9.950;2022-07-23T02:05:55;23.80;99.90
580;DHT22;276;48.392;9.950;2022-07-23T02:08:20;23.80;99.90
580;DHT22;276;48.392;9.950;2022-07-23T02:10:46;23.80;99.90
580;DHT22;276;48.392;9.950;2022-07-23T02:13:12;23.70;99.90
580;DHT22;276;48.392;9.950;2022-07-23T02:15:40;23.70;99.90
580;DHT22;276;48.392;9.950;2022-07-23T02:18:06;23.70;99.90
580;DHT22;276;48.392;9.950;2022-07-23T02:20:34;23.70;99.90
580;DHT22;276;48.392;9.950;2022-07-23T02:22:59;23.70;99.90
580;DHT22;276;48.392;9.950;2022-07-23T02:25:25;23.60;99.90
580;DHT22;276;48.392;9.950;2022-07-23T02:27:51;23.60;99.90
580;DHT22;276;48.392;9.950;2022-07-23T02:30:18;23.60;99.90
580;DHT22;276;48.392;9.950;2022-07-23T02:32:44;23.60;99.90
580;DHT22;276;48.392;9.950;2022-07-23T02:35:12;23.60;99.90
580;DHT22;276;48.392;9.950;2022-07-23T02:37:37;23.60;99.90
580;DHT22;276;48.392;9.950;2022-07-23T02:40:03;23.60;99.90
580;DHT22;276;48.392;9.950;2022-07-23T02:42:29;23.60;99.90
580;DHT22;276;48.392;9.950;2022-07-23T02:44:57;23.60;99.90
580;DHT22;276;48.392;9.950;2022-07-23T02:47:25;23.60;99.90
580;DHT22;276;48.392;9.950;2022-07-23T02:49:50;23.60;99.90
580;DHT22;276;48.392;9.950;2022-07-23T02:52:20;23.60;99.90
580;DHT22;276;48.392;9.950;2022-07-23T02:54:46;23.60;99.90
580;DHT22;276;48.392;9.950;2022-07-23T02:57:14;23.60;99.90
580;DHT22;276;48.392;9.950;2022-07-23T02:59:40;23.60;99.90
580;DHT22;276;48.392;9.950;2022-07-23T03:02:05;23.60;99.90
580;DHT22;276;48.392;9.950;2022-07-23T03:04:31;23.60;99.90
580;DHT22;276;48.392;9.950;2022-07-23T03:06:56;23.60;99.90
580;DHT22;276;48.392;9.950;2022-07-23T03:09:22;23.60;99.90
580;DHT22;276;48.392;9.950;2022-07-23T03:11:48;23.60;99.90
580;DHT22;276;48.392;9.950;2022-07-23T03:14:13;23.60;99.90
580;DHT22;276;48.392;9.950;2022-07-23T03:16:41;23.50;99.90
580;DHT22;276;48.392;9.950;2022-07-23T03:19:07;23.50;99.90
580;DHT22;276;48.392;9.950;2022-07-23T03:21:32;23.50;99.90
580;DHT22;276;48.392;9.950;2022-07-23T03:23:59;23.40;99.90
580;DHT22;276;48.392;9.950;2022-07-23T03:26:27;23.40;99.90
580;DHT22;276;48.392;9.950;2022-07-23T03:28:55;23.30;99.90
580;DHT22;276;48.392;9.950;2022-07-23T03:31:23;23.30;99.90
580;DHT22;276;48.392;9.950;2022-07-23T03:33:49;23.30;99.90
580;DHT22;276;48.392;9.950;2022-07-23T03:36:16;23.30;99.90
580;DHT22;276;48.392;9.950;2022-07-23T03:38:42;23.20;99.90
580;DHT22;276;48.392;9.950;2022-07-23T03:41:08;23.30;99.90
580;DHT22;276;48.392;9.950;2022-07-23T03:43:33;23.30;99.90
580;DHT22;276;48.392;9.950;2022-07-23T03:45:59;23.30;99.90
580;DHT22;276;48.392;9.950;2022-07-23T03:48:25;23.30;99.90
580;DHT22;276;48.392;9.950;2022-07-23T03:50:50;23.30;99.90
580;DHT22;276;48.392;9.950;2022-07-23T03:53:18;23.30;99.90
580;DHT22;276;48.392;9.950;2022-07-23T03:55:43;23.30;99.90
580;DHT22;276;48.392;9.950;2022-07-23T03:58:09;23.40;99.90
580;DHT22;276;48.392;9.950;2022-07-23T04:00:39;23.30;99.90
580;DHT22;276;48.392;9.950;2022-07-23T04:03:05;23.30;99.90
580;DHT22;276;48.392;9.950;2022-07-23T04:05:30;23.40;99.90
580;DHT22;276;48.392;9.950;2022-07-23T04:07:56;23.30;99.90
580;DHT22;276;48.392;9.950;2022-07-23T04:10:22;23.30;99.90
580;DHT22;276;48.392;9.950;2022-07-23T04:12:49;23.10;99.90
580;DHT22;276;48.392;9.950;2022-07-23T04:15:17;23.10;99.90
580;DHT22;276;48.392;9.950;2022-07-23T04:17:43;23.20;99.90
580;DHT22;276;48.392;9.950;2022-07-23T04:20:11;23.10;99.90
580;DHT22;276;48.392;9.950;2022-07-23T04:22:41;23.10;99.90
580;DHT22;276;48.392;9.950;2022-07-23T04:25:07;23.10;99.90
580;DHT22;276;48.392;9.950;2022-07-23T04:27:33;23.00;99.90
580;DHT22;276;48.392;9.950;2022-07-23T04:30:01;23.00;99.90
580;DHT22;276;48.392;9.950;2022-07-23T04:32:27;23.00;99.90
580;DHT22;276;48.392;9.950;2022-07-23T04:34:52;23.00;99.90
580;DHT22;276;48.392;9.950;2022-07-23T04:37:18;22.90;99.90
580;DHT22;276;48.392;9.950;2022-07-23T04:39:43;23.00;99.90
580;DHT22;276;48.392;9.950;2022-07-23T04:42:10;22.90;99.90
580;DHT22;276;48.392;9.950;2022-07-23T04:44:35;22.90;99.90
580;DHT22;276;48.392;9.950;2022-07-23T04:47:05;23.00;99.90
580;DHT22;276;48.392;9.950;2022-07-23T04:49:33;23.10;99.90
580;DHT22;276;48.392;9.950;2022-07-23T04:52:01;23.10;99.90
580;DHT22;276;48.392;9.950;2022-07-23T04:54:29;23.10;99.90
580;DHT22;276;48.392;9.950;2022-07-23T04:56:57;23.00;99.90
580;DHT22;276;48.392;9.950;2022-07-23T04:59:23;23.00;99.90
580;DHT22;276;48.392;9.950;2022-07-23T05:01:49;23.10;99.90
580;DHT22;276;48.392;9.950;2022-07-23T05:04:14;23.00;99.90
580;DHT22;276;48.392;9.950;2022-07-23T05:06:40;23.00;99.90
580;DHT22;276;48.392;9.950;2022-07-23T05:09:06;23.00;99.90
580;DHT22;276;48.392;9.950;2022-07-23T05:11:31;23.00;99.90
580;DHT22;276;48.392;9.950;2022-07-23T05:14:00;23.00;99.90
580;DHT22;276;48.392;9.950;2022-07-23T05:16:30;23.10;99.90
580;DHT22;276;48.392;9.950;2022-07-23T05:18:56;23.20;99.90
580;DHT22;276;48.392;9.950;2022-07-23T05:21:21;23.20;99.90
580;DHT22;276;48.392;9.950;2022-07-23T05:23:47;23.20;99.90
580;DHT22;276;48.392;9.950;2022-07-23T05:26:12;23.20;99.90
580;DHT22;276;48.392;9.950;2022-07-23T05:28:38;23.20;99.90
580;DHT22;276;48.392;9.950;2022-07-23T05:31:06;23.20;99.90
580;DHT22;276;48.392;9.950;2022-07-23T05:33:32;23.20;99.90
580;DHT22;276;48.392;9.950;2022-07-23T05:36:02;23.20;99.90
580;DHT22;276;48.392;9.950;2022-07-23T05:38:29;23.20;99.90
580;DHT22;276;48.392;9.950;2022-07-23T05:40:54;23.10;99.90
580;DHT22;276;48.392;9.950;2022-07-23T05:43:22;23.10;99.90
580;DHT22;276;48.392;9.950;2022-07-23T05:45:48;23.10;99.90
580;DHT22;276;48.392;9.950;2022-07-23T05:48:13;23.10;99.90
580;DHT22;276;48.392;9.950;2022-07-23T05:50:39;23.10;99.90
580;DHT22;276;48.392;9.950;2022-07-23T05:53:05;23.10;99.90
580;DHT22;276;48.392;9.950;2022-07-23T05:55:30;23.00;99.90
580;DHT22;276;48.392;9.950;2022-07-23T05:58:01;23.00;99.90
580;DHT22;276;48.392;9.950;2022-07-23T06:00:29;23.00;99.90
580;DHT22;276;48.392;9.950;2022-07-23T06:02:55;23.00;99.90
580;DHT22;276;48.392;9.950;2022-07-23T06:05:24;23.00;99.90
580;DHT22;276;48.392;9.950;2022-07-23T06:07:50;23.10;99.90
580;DHT22;276;48.392;9.950;2022-07-23T06:10:15;23.20;99.90
580;DHT22;276;48.392;9.950;2022-07-23T06:12:43;23.10;99.90
580;DHT22;276;48.392;9.950;2022-07-23T06:15:09;23.10;99.90
580;DHT22;276;48.392;9.950;2022-07-23T06:17:36;23.10;99.90
580;DHT22;276;48.392;9.950;2022-07-23T06:20:07;23.20;99.90
580;DHT22;276;48.392;9.950;2022-07-23T06:22:36;23.20;99.90
580;DHT22;276;48.392;9.950;2022-07-23T06:25:04;23.20;99.90
580;DHT22;276;48.392;9.950;2022-07-23T06:27:30;23.30;99.90
580;DHT22;276;48.392;9.950;2022-07-23T06:29:58;23.30;99.90
580;DHT22;276;48.392;9.950;2022-07-23T06:32:26;23.30;99.90
580;DHT22;276;48.392;9.950;2022-07-23T06:34:54;23.30;99.90
580;DHT22;276;48.392;9.950;2022-07-23T06:37:19;23.20;99.90
580;DHT22;276;48.392;9.950;2022-07-23T06:39:45;23.30;99.90
580;DHT22;276;48.392;9.950;2022-07-23T06:42:13;23.40;99.90
580;DHT22;276;48.392;9.950;2022-07-23T06:44:40;23.40;99.90
580;DHT22;276;48.392;9.950;2022-07-23T06:47:06;23.40;99.90
580;DHT22;276;48.392;9.950;2022-07-23T06:49:36;23.50;99.90
580;DHT22;276;48.392;9.950;2022-07-23T06:52:06;23.50;99.90
580;DHT22;276;48.392;9.950;2022-07-23T06:54:32;23.50;99.90
580;DHT22;276;48.392;9.950;2022-07-23T06:56:57;23.50;99.90
580;DHT22;276;48.392;9.950;2022-07-23T06:59:23;23.50;99.90
580;DHT22;276;48.392;9.950;2022-07-23T07:01:49;23.60;99.90
580;DHT22;276;48.392;9.950;2022-07-23T07:04:17;23.60;99.90
580;DHT22;276;48.392;9.950;2022-07-23T07:06:44;23.60;99.90
580;DHT22;276;48.392;9.950;2022-07-23T07:09:10;23.70;99.90
580;DHT22;276;48.392;9.950;2022-07-23T07:11:36;23.90;99.90
580;DHT22;276;48.392;9.950;2022-07-23T07:14:01;24.00;99.90
580;DHT22;276;48.392;9.950;2022-07-23T07:16:27;24.10;99.90
580;DHT22;276;48.392;9.950;2022-07-23T07:18:53;24.20;99.90
580;DHT22;276;48.392;9.950;2022-07-23T07:21:20;24.30;99.90
580;DHT22;276;48.392;9.950;2022-07-23T07:23:48;24.30;99.90
580;DHT22;276;48.392;9.950;2022-07-23T07:26:14;24.20;99.90
580;DHT22;276;48.392;9.950;2022-07-23T07:28:42;24.10;99.90
580;DHT22;276;48.392;9.950;2022-07-23T07:31:10;24.00;99.90
580;DHT22;276;48.392;9.950;2022-07-23T07:33:35;24.00;99.90
580;DHT22;276;48.392;9.950;2022-07-23T07:36:01;24.00;99.90
580;DHT22;276;48.392;9.950;2022-07-23T07:38:26;24.10;99.90
580;DHT22;276;48.392;9.950;2022-07-23T07:40:52;24.20;99.90
580;DHT22;276;48.392;9.950;2022-07-23T07:43:18;24.30;99.90
580;DHT22;276;48.392;9.950;2022-07-23T07:45:43;24.40;99.90
580;DHT22;276;48.392;9.950;2022-07-23T07:48:11;24.50;99.90
580;DHT22;276;48.392;9.950;2022-07-23T07:50:39;24.60;99.90
580;DHT22;276;48.392;9.950;2022-07-23T07:53:09;24.70;99.90
580;DHT22;276;48.392;9.950;2022-07-23T07:55:37;24.70;99.90
580;DHT22;276;48.392;9.950;2022-07-23T07:58:03;24.80;99.90
580;DHT22;276;48.392;9.950;2022-07-23T08:00:31;24.80;99.90
580;DHT22;276;48.392;9.950;2022-07-23T08:02:58;24.90;99.90
580;DHT22;276;48.392;9.950;2022-07-23T08:05:28;25.00;99.90
580;DHT22;276;48.392;9.950;2022-07-23T08:07:58;25.10;99.90
580;DHT22;276;48.392;9.950;2022-07-23T08:10:26;25.30;99.90
580;DHT22;276;48.392;9.950;2022-07-23T08:12:54;25.50;99.80
580;DHT22;276;48.392;9.950;2022-07-23T08:15:22;25.60;99.90
580;DHT22;276;48.392;9.950;2022-07-23T08:17:49;25.70;99.60
580;DHT22;276;48.392;9.950;2022-07-23T08:20:19;25.80;98.70
580;DHT22;276;48.392;9.950;2022-07-23T08:22:59;25.70;98.10
580;DHT22;276;48.392;9.950;2022-07-23T08:25:42;25.70;97.90
580;DHT22;276;48.392;9.950;2022-07-23T08:28:12;25.60;98.50
580;DHT22;276;48.392;9.950;2022-07-23T08:30:40;25.70;98.00
580;DHT22;276;48.392;9.950;2022-07-23T08:33:11;25.80;97.90
580;DHT22;276;48.392;9.950;2022-07-23T08:35:41;25.70;98.40
580;DHT22;276;48.392;9.950;2022-07-23T08:38:09;25.70;98.30
580;DHT22;276;48.392;9.950;2022-07-23T08:40:40;25.70;98.70
580;DHT22;276;48.392;9.950;2022-07-23T08:43:11;25.80;98.60
580;DHT22;276;48.392;9.950;2022-07-23T08:45:42;25.80;98.20
580;DHT22;276;48.392;9.950;2022-07-23T08:48:11;25.80;98.40
580;DHT22;276;48.392;9.950;2022-07-23T08:50:37;25.80;98.50
580;DHT22;276;48.392;9.950;2022-07-23T08:53:06;25.70;98.50
580;DHT22;276;48.392;9.950;2022-07-23T08:55:35;25.60;98.60
580;DHT22;276;48.392;9.950;2022-07-23T08:58:01;25.50;99.10
580;DHT22;276;48.392;9.950;2022-07-23T09:00:30;25.40;99.20
580;DHT22;276;48.392;9.950;2022-07-23T09:02:56;25.30;99.50
580;DHT22;276;48.392;9.950;2022-07-23T09:05:22;25.20;99.60
580;DHT22;276;48.392;9.950;2022-07-23T09:08:13;25.10;99.90
580;DHT22;276;48.392;9.950;2022-07-23T09:11:06;25.10;99.90
580;DHT22;276;48.392;9.950;2022-07-23T09:13:48;25.10;99.90
580;DHT22;276;48.392;9.950;2022-07-23T09:16:25;25.10;99.90
580;DHT22;276;48.392;9.950;2022-07-23T09:18:53;25.20;99.90
580;DHT22;276;48.392;9.950;2022-07-23T09:21:23;25.40;99.70
580;DHT22;276;48.392;9.950;2022-07-23T09:24:03;25.50;99.80
580;DHT22;276;48.392;9.950;2022-07-23T09:26:37;25.60;99.00
580;DHT22;276;48.392;9.950;2022-07-23T09:29:06;25.50;99.50
580;DHT22;276;48.392;9.950;2022-07-23T09:31:47;25.50;99.50
580;DHT22;276;48.392;9.950;2022-07-23T09:34:18;25.60;99.90
580;DHT22;276;48.392;9.950;2022-07-23T09:36:44;25.80;99.80
580;DHT22;276;48.392;9.950;2022-07-23T09:39:14;26.00;99.20
580;DHT22;276;48.392;9.950;2022-07-23T09:41:46;26.20;99.20
580;DHT22;276;48.392;9.950;2022-07-23T09:44:20;26.40;98.30
580;DHT22;276;48.392;9.950;2022-07-23T09:46:48;26.60;97.70
580;DHT22;276;48.392;9.950;2022-07-23T09:49:22;26.60;97.60
580;DHT22;276;48.392;9.950;2022-07-23T09:51:52;26.70;97.40
580;DHT22;276;48.392;9.950;2022-07-23T09:54:38;26.60;97.30
580;DHT22;276;48.392;9.950;2022-07-23T09:59:36;26.50;97.20
580;DHT22;276;48.392;9.950;2022-07-23T10:02:02;26.40;97.40
580;DHT22;276;48.392;9.950;2022-07-23T10:04:30;26.40;97.50
580;DHT22;276;48.392;9.950;2022-07-23T10:06:58;26.40;97.80
580;DHT22;276;48.392;9.950;2022-07-23T10:09:30;26.60;97.10
580;DHT22;276;48.392;9.950;2022-07-23T10:11:59;26.70;97.30
580;DHT22;276;48.392;9.950;2022-07-23T10:14:44;26.90;96.90
580;DHT22;276;48.392;9.950;2022-07-23T10:17:10;27.10;96.60
580;DHT22;276;48.392;9.950;2022-07-23T10:19:36;27.20;96.00
580;DHT22;276;48.392;9.950;2022-07-23T10:36:07;26.90;96.80
580;DHT22;276;48.392;9.950;2022-07-23T10:38:57;27.00;97.00
580;DHT22;276;48.392;9.950;2022-07-23T10:41:34;27.20;96.80
580;DHT22;276;48.392;9.950;2022-07-23T10:44:13;27.30;96.50
580;DHT22;276;48.392;9.950;2022-07-23T10:47:02;27.30;96.10
580;DHT22;276;48.392;9.950;2022-07-23T10:49:43;27.30;95.60
580;DHT22;276;48.392;9.950;2022-07-23T10:54:51;27.40;95.50
580;DHT22;276;48.392;9.950;2022-07-23T10:57:22;27.40;95.60
580;DHT22;276;48.392;9.950;2022-07-23T11:02:34;27.40;95.70
580;DHT22;276;48.392;9.950;2022-07-23T11:07:29;27.50;96.20
580;DHT22;276;48.392;9.950;2022-07-23T11:09:58;27.70;94.80
580;DHT22;276;48.392;9.950;2022-07-23T11:15:12;27.90;95.10
580;DHT22;276;48.392;9.950;2022-07-23T11:20:18;28.10;94.80
580;DHT22;276;48.392;9.950;2022-07-23T11:25:28;28.40;94.20
580;DHT22;276;48.392;9.950;2022-07-23T11:27:54;28.50;94.00
580;DHT22;276;48.392;9.950;2022-07-23T11:35:44;28.60;94.40
580;DHT22;276;48.392;9.950;2022-07-23T11:40:43;28.80;93.40
580;DHT22;276;48.392;9.950;2022-07-23T11:43:10;28.90;92.70
580;DHT22;276;48.392;9.950;2022-07-23T11:45:41;28.90;92.80
580;DHT22;276;48.392;9.950;2022-07-23T11:48:37;28.70;92.60
580;DHT22;276;48.392;9.950;2022-07-23T11:51:01;28.40;92.90
580;DHT22;276;48.392;9.950;2022-07-23T11:53:36;28.20;93.50
580;DHT22;276;48.392;9.950;2022-07-23T11:56:11;28.00;93.30
580;DHT22;276;48.392;9.950;2022-07-23T11:58:38;27.90;96.10
580;DHT22;276;48.392;9.950;2022-07-23T12:01:06;27.70;96.20
580;DHT22;276;48.392;9.950;2022-07-23T12:03:34;27.60;99.80
580;DHT22;276;48.392;9.950;2022-07-23T12:06:01;27.30;99.90
580;DHT22;276;48.392;9.950;2022-07-23T12:08:27;27.10;99.90
580;DHT22;276;48.392;9.950;2022-07-23T12:10:55;26.80;99.90
580;DHT22;276;48.392;9.950;2022-07-23T12:13:23;26.50;99.90
580;DHT22;276;48.392;9.950;2022-07-23T12:15:56;26.10;99.90
580;DHT22;276;48.392;9.950;2022-07-23T12:18:25;25.90;99.90
580;DHT22;276;48.392;9.950;2022-07-23T12:20:56;25.80;99.90
580;DHT22;276;48.392;9.950;2022-07-23T12:23:27;25.80;99.90
580;DHT22;276;48.392;9.950;2022-07-23T12:25:53;25.80;99.90
580;DHT22;276;48.392;9.950;2022-07-23T12:30:51;25.70;99.90
580;DHT22;276;48.392;9.950;2022-07-23T12:33:25;25.80;99.90
580;DHT22;276;48.392;9.950;2022-07-23T12:35:53;25.90;99.90
580;DHT22;276;48.392;9.950;2022-07-23T12:38:23;26.00;99.90
580;DHT22;276;48.392;9.950;2022-07-23T12:43:26;26.30;99.90
580;DHT22;276;48.392;9.950;2022-07-23T12:48:32;26.60;99.90
580;DHT22;276;48.392;9.950;2022-07-23T12:56:07;27.00;99.90
580;DHT22;276;48.392;9.950;2022-07-23T12:58:46;27.10;99.90
580;DHT22;276;48.392;9.950;2022-07-23T13:06:21;27.30;99.90
580;DHT22;276;48.392;9.950;2022-07-23T13:08:47;27.40;99.90
580;DHT22;276;48.392;9.950;2022-07-23T13:11:15;27.40;99.90
580;DHT22;276;48.392;9.950;2022-07-23T13:13:43;27.50;99.90
580;DHT22;276;48.392;9.950;2022-07-23T13:16:10;27.50;99.90
580;DHT22;276;48.392;9.950;2022-07-23T13:18:36;27.40;99.90
580;DHT22;276;48.392;9.950;2022-07-23T13:21:02;27.40;99.90
580;DHT22;276;48.392;9.950;2022-07-23T13:23:30;27.40;99.90
580;DHT22;276;48.392;9.950;2022-07-23T13:25:58;27.40;99.90
580;DHT22;276;48.392;9.950;2022-07-23T13:28:26;27.30;99.90
580;DHT22;276;48.392;9.950;2022-07-23T13:30:52;27.30;99.90
580;DHT22;276;48.392;9.950;2022-07-23T13:33:19;27.20;99.90
580;DHT22;276;48.392;9.950;2022-07-23T13:35:48;27.00;99.90
580;DHT22;276;48.392;9.950;2022-07-23T13:38:14;27.00;99.90
580;DHT22;276;48.392;9.950;2022-07-23T13:40:42;26.80;99.90
580;DHT22;276;48.392;9.950;2022-07-23T13:43:10;26.80;99.90
580;DHT22;276;48.392;9.950;2022-07-23T13:45:36;26.70;99.90
580;DHT22;276;48.392;9.950;2022-07-23T13:48:03;26.70;99.90
580;DHT22;276;48.392;9.950;2022-07-23T13:50:29;26.80;99.90
580;DHT22;276;48.392;9.950;2022-07-23T13:52:55;26.90;99.90
580;DHT22;276;48.392;9.950;2022-07-23T13:55:20;27.00;99.90
580;DHT22;276;48.392;9.950;2022-07-23T13:57:46;27.00;99.90
580;DHT22;276;48.392;9.950;2022-07-23T14:00:12;27.10;99.90
580;DHT22;276;48.392;9.950;2022-07-23T14:02:41;27.10;99.90
580;DHT22;276;48.392;9.950;2022-07-23T14:05:09;27.20;99.90
580;DHT22;276;48.392;9.950;2022-07-23T14:07:36;27.20;99.90
580;DHT22;276;48.392;9.950;2022-07-23T14:10:07;27.20;99.90
580;DHT22;276;48.392;9.950;2022-07-23T14:12:34;27.20;99.90
580;DHT22;276;48.392;9.950;2022-07-23T14:15:00;27.20;99.90
580;DHT22;276;48.392;9.950;2022-07-23T14:17:25;27.20;99.90
580;DHT22;276;48.392;9.950;2022-07-23T14:19:51;27.10;99.90
580;DHT22;276;48.392;9.950;2022-07-23T14:22:16;27.10;99.90
580;DHT22;276;48.392;9.950;2022-07-23T14:24:44;27.00;99.90
580;DHT22;276;48.392;9.950;2022-07-23T14:27:10;27.00;99.90
580;DHT22;276;48.392;9.950;2022-07-23T14:29:36;26.90;99.90
580;DHT22;276;48.392;9.950;2022-07-23T14:32:02;26.90;99.90
580;DHT22;276;48.392;9.950;2022-07-23T14:34:28;26.80;99.90
580;DHT22;276;48.392;9.950;2022-07-23T14:36:54;26.80;99.90
580;DHT22;276;48.392;9.950;2022-07-23T14:39:21;26.80;99.90
580;DHT22;276;48.392;9.950;2022-07-23T14:41:47;26.70;99.90
580;DHT22;276;48.392;9.950;2022-07-23T14:44:18;26.70;99.90
580;DHT22;276;48.392;9.950;2022-07-23T14:46:43;26.70;99.90
580;DHT22;276;48.392;9.950;2022-07-23T14:49:09;26.70;99.90
580;DHT22;276;48.392;9.950;2022-07-23T14:51:35;26.60;99.90
580;DHT22;276;48.392;9.950;2022-07-23T14:54:03;26.60;99.90
580;DHT22;276;48.392;9.950;2022-07-23T14:56:29;26.50;99.90
580;DHT22;276;48.392;9.950;2022-07-23T14:58:57;26.40;99.90
580;DHT22;276;48.392;9.950;2022-07-23T15:01:22;26.30;99.90
580;DHT22;276;48.392;9.950;2022-07-23T15:03:49;26.10;99.90
580;DHT22;276;48.392;9.950;2022-07-23T15:06:17;26.10;99.90
580;DHT22;276;48.392;9.950;2022-07-23T15:08:43;26.10;99.90
580;DHT22;276;48.392;9.950;2022-07-23T15:11:14;26.10;99.90
580;DHT22;276;48.392;9.950;2022-07-23T15:13:39;26.00;99.90
580;DHT22;276;48.392;9.950;2022-07-23T15:16:08;26.10;99.90
580;DHT22;276;48.392;9.950;2022-07-23T15:18:34;26.10;99.90
580;DHT22;276;48.392;9.950;2022-07-23T15:21:03;26.20;99.90
580;DHT22;276;48.392;9.950;2022-07-23T15:23:31;26.20;99.90
580;DHT22;276;48.392;9.950;2022-07-23T15:25:58;26.30;99.90
580;DHT22;276;48.392;9.950;2022-07-23T15:28:25;26.40;99.90
580;DHT22;276;48.392;9.950;2022-07-23T15:30:51;26.40;99.90
580;DHT22;276;48.392;9.950;2022-07-23T15:33:20;26.50;99.90
580;DHT22;276;48.392;9.950;2022-07-23T15:35:48;26.40;99.90
580;DHT22;276;48.392;9.950;2022-07-23T15:38:14;26.40;99.90
580;DHT22;276;48.392;9.950;2022-07-23T15:40:40;26.50;99.90
580;DHT22;276;48.392;9.950;2022-07-23T15:43:08;26.60;99.90
580;DHT22;276;48.392;9.950;2022-07-23T15:45:36;26.60;99.90
580;DHT22;276;48.392;9.950;2022-07-23T15:48:04;26.60;99.90
580;DHT22;276;48.392;9.950;2022-07-23T15:50:30;26.50;99.90
580;DHT22;276;48.392;9.950;2022-07-23T15:52:56;26.40;99.90
580;DHT22;276;48.392;9.950;2022-07-23T15:55:21;26.40;99.90
580;DHT22;276;48.392;9.950;2022-07-23T15:57:47;26.50;99.90
580;DHT22;276;48.392;9.950;2022-07-23T16:00:18;26.60;99.90
580;DHT22;276;48.392;9.950;2022-07-23T16:02:43;26.60;99.90
580;DHT22;276;48.392;9.950;2022-07-23T16:05:09;26.60;99.90
580;DHT22;276;48.392;9.950;2022-07-23T16:07:43;26.60;99.90
580;DHT22;276;48.392;9.950;2022-07-23T16:10:09;26.60;99.90
580;DHT22;276;48.392;9.950;2022-07-23T16:12:36;26.60;99.90
580;DHT22;276;48.392;9.950;2022-07-23T16:15:04;26.60;99.90
580;DHT22;276;48.392;9.950;2022-07-23T16:17:30;26.60;99.90
580;DHT22;276;48.392;9.950;2022-07-23T16:19:56;26.60;99.90
580;DHT22;276;48.392;9.950;2022-07-23T16:22:22;26.70;99.90
580;DHT22;276;48.392;9.950;2022-07-23T16:24:50;26.70;99.90
580;DHT22;276;48.392;9.950;2022-07-23T16:27:15;26.60;99.90
580;DHT22;276;48.392;9.950;2022-07-23T16:29:46;26.60;99.90
580;DHT22;276;48.392;9.950;2022-07-23T16:32:11;26.70;99.90
580;DHT22;276;48.392;9.950;2022-07-23T16:34:37;26.70;99.90
580;DHT22;276;48.392;9.950;2022-07-23T16:37:03;26.70;99.90
580;DHT22;276;48.392;9.950;2022-07-23T16:39:33;26.70;99.90
580;DHT22;276;48.392;9.950;2022-07-23T16:41:58;26.80;99.90
580;DHT22;276;48.392;9.950;2022-07-23T16:44:24;26.70;99.90
580;DHT22;276;48.392;9.950;2022-07-23T16:46:52;26.70;99.90
580;DHT22;276;48.392;9.950;2022-07-23T16:49:18;26.70;99.90
580;DHT22;276;48.392;9.950;2022-07-23T16:51:46;26.70;99.90
580;DHT22;276;48.392;9.950;2022-07-23T16:54:12;26.80;99.90
580;DHT22;276;48.392;9.950;2022-07-23T16:56:44;26.80;99.90
580;DHT22;276;48.392;9.950;2022-07-23T16:59:10;26.80;99.90
580;DHT22;276;48.392;9.950;2022-07-23T17:01:40;26.80;99.90
580;DHT22;276;48.392;9.950;2022-07-23T17:04:06;26.80;99.90
580;DHT22;276;48.392;9.950;2022-07-23T17:06:33;26.90;99.90
580;DHT22;276;48.392;9.950;2022-07-23T17:09:03;26.90;99.90
580;DHT22;276;48.392;9.950;2022-07-23T17:11:30;27.00;99.90
580;DHT22;276;48.392;9.950;2022-07-23T17:13:56;27.00;99.90
580;DHT22;276;48.392;9.950;2022-07-23T17:16:22;27.10;99.90
580;DHT22;276;48.392;9.950;2022-07-23T17:18:47;27.10;99.90
580;DHT22;276;48.392;9.950;2022-07-23T17:21:13;27.10;99.70
580;DHT22;276;48.392;9.950;2022-07-23T17:23:39;27.20;99.80
580;DHT22;276;48.392;9.950;2022-07-23T17:26:05;27.20;99.60
580;DHT22;276;48.392;9.950;2022-07-23T17:28:33;27.20;99.20
580;DHT22;276;48.392;9.950;2022-07-23T17:30:58;27.20;99.20
580;DHT22;276;48.392;9.950;2022-07-23T17:33:26;27.20;99.40
580;DHT22;276;48.392;9.950;2022-07-23T17:35:53;27.20;99.80